sensor_id;sensor_type;location;lat;lon;timestamp;pressure;altitude;pressure_sealevel;temperature
68027;BMP180;54819;48.030;14.710;2022-12-18T00:01:16;98836.40;;;-2.90
68027;BMP180;54819;48.030;14.710;2022-12-18T00:03:44;98839.80;;;-2.80
68027;BMP180;54819;48.030;14.710;2022-12-18T00:06:13;98842.00;;;-2.74
68027;BMP180;54819;48.030;14.710;2022-12-18T00:08:42;98841.40;;;-2.70
68027;BMP180;54819;48.030;14.710;2022-12-18T00:11:14;98844.80;;;-2.70
68027;BMP180;54819;48.030;14.710;2022-12-18T00:13:42;98840.40;;;-2.70
68027;BMP180;54819;48.030;14.710;2022-12-18T00:16:11;98843.00;;;-2.70
68027;BMP180;54819;48.030;14.710;2022-12-18T00:18:38;98832.40;;;-2.80
68027;BMP180;54819;48.030;14.710;2022-12-18T00:21:09;98831.00;;;-2.90
68027;BMP180;54819;48.030;14.710;2022-12-18T00:23:37;98841.20;;;-3.00
68027;BMP180;54819;48.030;14.710;2022-12-18T00:26:09;98841.20;;;-3.20
68027;BMP180;54819;48.030;14.710;2022-12-18T00:28:39;98846.80;;;-3.30
68027;BMP180;54819;48.030;14.710;2022-12-18T00:31:09;98850.20;;;-3.50
68027;BMP180;54819;48.030;14.710;2022-12-18T00:33:37;98859.60;;;-3.60
68027;BMP180;54819;48.030;14.710;2022-12-18T00:36:20;98856.60;;;-3.66
68027;BMP180;54819;48.030;14.710;2022-12-18T00:38:47;98858.00;;;-3.70
68027;BMP180;54819;48.030;14.710;2022-12-18T00:41:17;98859.40;;;-3.80
68027;BMP180;54819;48.030;14.710;2022-12-18T00:44:13;98867.20;;;-4.00
68027;BMP180;54819;48.030;14.710;2022-12-18T00:46:41;98871.40;;;-4.10
68027;BMP180;54819;48.030;14.710;2022-12-18T00:49:08;98866.00;;;-4.20
68027;BMP180;54819;48.030;14.710;2022-12-18T00:51:37;98869.80;;;-4.30
68027;BMP180;54819;48.030;14.710;2022-12-18T00:54:04;98872.60;;;-4.34
68027;BMP180;54819;48.030;14.710;2022-12-18T00:56:31;98867.80;;;-4.40
68027;BMP180;54819;48.030;14.710;2022-12-18T00:58:58;98870.40;;;-4.20
68027;BMP180;54819;48.030;14.710;2022-12-18T01:01:24;98867.00;;;-4.10
68027;BMP180;54819;48.030;14.710;2022-12-18T01:03:51;98867.20;;;-4.10
68027;BMP180;54819;48.030;14.710;2022-12-18T01:06:19;98871.20;;;-4.10
68027;BMP180;54819;48.030;14.710;2022-12-18T01:08:46;98877.80;;;-4.10
68027;BMP180;54819;48.030;14.710;2022-12-18T01:11:18;98881.20;;;-4.10
68027;BMP180;54819;48.030;14.710;2022-12-18T01:13:46;98886.40;;;-4.10
68027;BMP180;54819;48.030;14.710;2022-12-18T01:16:14;98886.60;;;-4.10
68027;BMP180;54819;48.030;14.710;2022-12-18T01:18:42;98889.60;;;-4.10
68027;BMP180;54819;48.030;14.710;2022-12-18T01:21:11;98889.40;;;-4.20
68027;BMP180;54819;48.030;14.710;2022-12-18T01:23:38;98890.80;;;-4.20
68027;BMP180;54819;48.030;14.710;2022-12-18T01:26:07;98897.20;;;-4.20
68027;BMP180;54819;48.030;14.710;2022-12-18T01:28:34;98898.40;;;-4.20
68027;BMP180;54819;48.030;14.710;2022-12-18T01:31:15;98904.40;;;-4.20
68027;BMP180;54819;48.030;14.710;2022-12-18T01:33:43;98901.60;;;-4.30
68027;BMP180;54819;48.030;14.710;2022-12-18T01:36:20;98904.20;;;-4.36
68027;BMP180;54819;48.030;14.710;2022-12-18T01:38:48;98910.00;;;-4.40
68027;BMP180;54819;48.030;14.710;2022-12-18T01:41:16;98917.20;;;-4.40
68027;BMP180;54819;48.030;14.710;2022-12-18T01:43:53;98927.00;;;-4.40
68027;BMP180;54819;48.030;14.710;2022-12-18T01:46:22;98924.20;;;-4.40
68027;BMP180;54819;48.030;14.710;2022-12-18T01:48:54;98926.40;;;-4.40
68027;BMP180;54819;48.030;14.710;2022-12-18T01:51:23;98927.20;;;-4.38
68027;BMP180;54819;48.030;14.710;2022-12-18T01:53:52;98936.00;;;-4.30
68027;BMP180;54819;48.030;14.710;2022-12-18T01:56:20;98933.80;;;-4.22
68027;BMP180;54819;48.030;14.710;2022-12-18T01:58:59;98930.40;;;-4.14
68027;BMP180;54819;48.030;14.710;2022-12-18T02:01:29;98925.60;;;-4.04
68027;BMP180;54819;48.030;14.710;2022-12-18T02:04:23;98923.60;;;-3.94
68027;BMP180;54819;48.030;14.710;2022-12-18T02:06:57;98921.00;;;-3.82
68027;BMP180;54819;48.030;14.710;2022-12-18T02:09:35;98918.80;;;-3.70
68027;BMP180;54819;48.030;14.710;2022-12-18T02:12:27;98920.80;;;-3.60
68027;BMP180;54819;48.030;14.710;2022-12-18T02:17:42;98914.60;;;-3.50
68027;BMP180;54819;48.030;14.710;2022-12-18T02:20:19;98913.20;;;-3.44
68027;BMP180;54819;48.030;14.710;2022-12-18T02:26:21;98909.00;;;-3.30
68027;BMP180;54819;48.030;14.710;2022-12-18T02:28:31;98901.80;;;-3.34
68027;BMP180;54819;48.030;14.710;2022-12-18T02:31:01;98902.20;;;-3.40
68027;BMP180;54819;48.030;14.710;2022-12-18T02:33:31;98909.00;;;-3.40
68027;BMP180;54819;48.030;14.710;2022-12-18T02:36:01;98909.00;;;-3.48
68027;BMP180;54819;48.030;14.710;2022-12-18T02:38:30;98913.00;;;-3.50
68027;BMP180;54819;48.030;14.710;2022-12-18T02:41:02;98912.40;;;-3.50
68027;BMP180;54819;48.030;14.710;2022-12-18T02:43:30;98902.80;;;-3.50
68027;BMP180;54819;48.030;14.710;2022-12-18T02:45:59;98917.00;;;-3.50
68027;BMP180;54819;48.030;14.710;2022-12-18T02:48:33;98913.80;;;-3.50
68027;BMP180;54819;48.030;14.710;2022-12-18T02:51:10;98921.20;;;-3.50
68027;BMP180;54819;48.030;14.710;2022-12-18T02:54:04;98923.80;;;-3.50
68027;BMP180;54819;48.030;14.710;2022-12-18T02:56:47;98927.40;;;-3.50
68027;BMP180;54819;48.030;14.710;2022-12-18T02:59:21;98927.40;;;-3.44
68027;BMP180;54819;48.030;14.710;2022-12-18T03:07:53;98926.80;;;-3.74
68027;BMP180;54819;48.030;14.710;2022-12-18T03:10:35;98916.40;;;-3.80
68027;BMP180;54819;48.030;14.710;2022-12-18T03:13:08;98915.60;;;-3.70
68027;BMP180;54819;48.030;14.710;2022-12-18T03:15:51;98924.00;;;-3.70
68027;BMP180;54819;48.030;14.710;2022-12-18T03:18:30;98926.00;;;-3.70
68027;BMP180;54819;48.030;14.710;2022-12-18T03:21:03;98924.00;;;-3.70
68027;BMP180;54819;48.030;14.710;2022-12-18T03:23:40;98925.60;;;-3.68
68027;BMP180;54819;48.030;14.710;2022-12-18T03:26:13;98926.40;;;-3.70
68027;BMP180;54819;48.030;14.710;2022-12-18T03:28:55;98926.00;;;-3.70
68027;BMP180;54819;48.030;14.710;2022-12-18T03:31:26;98927.80;;;-3.70
68027;BMP180;54819;48.030;14.710;2022-12-18T03:34:02;98929.60;;;-3.80
68027;BMP180;54819;48.030;14.710;2022-12-18T03:36:38;98931.20;;;-3.80
68027;BMP180;54819;48.030;14.710;2022-12-18T03:39:06;98928.80;;;-3.90
68027;BMP180;54819;48.030;14.710;2022-12-18T03:41:45;98930.60;;;-4.00
68027;BMP180;54819;48.030;14.710;2022-12-18T03:50:21;98924.00;;;-4.20
68027;BMP180;54819;48.030;14.710;2022-12-18T03:52:53;98916.60;;;-4.22
68027;BMP180;54819;48.030;14.710;2022-12-18T03:55:25;98910.60;;;-4.22
68027;BMP180;54819;48.030;14.710;2022-12-18T03:57:58;98914.20;;;-4.30
68027;BMP180;54819;48.030;14.710;2022-12-18T04:00:30;98920.40;;;-4.34
68027;BMP180;54819;48.030;14.710;2022-12-18T04:03:04;98916.20;;;-4.40
68027;BMP180;54819;48.030;14.710;2022-12-18T04:05:38;98928.00;;;-4.40
68027;BMP180;54819;48.030;14.710;2022-12-18T04:08:05;98931.60;;;-4.50
68027;BMP180;54819;48.030;14.710;2022-12-18T04:10:35;98930.40;;;-4.60
68027;BMP180;54819;48.030;14.710;2022-12-18T04:13:02;98936.40;;;-4.70
68027;BMP180;54819;48.030;14.710;2022-12-18T04:15:31;98939.40;;;-4.70
68027;BMP180;54819;48.030;14.710;2022-12-18T04:18:00;98940.20;;;-4.80
68027;BMP180;54819;48.030;14.710;2022-12-18T04:20:31;98946.40;;;-4.82
68027;BMP180;54819;48.030;14.710;2022-12-18T04:22:58;98950.80;;;-4.90
68027;BMP180;54819;48.030;14.710;2022-12-18T04:25:28;98946.20;;;-5.00
68027;BMP180;54819;48.030;14.710;2022-12-18T04:28:06;98952.40;;;-5.10
68027;BMP180;54819;48.030;14.710;2022-12-18T04:30:34;98954.60;;;-5.10
68027;BMP180;54819;48.030;14.710;2022-12-18T04:33:00;98957.40;;;-5.20
68027;BMP180;54819;48.030;14.710;2022-12-18T04:35:28;98961.80;;;-5.24
68027;BMP180;54819;48.030;14.710;2022-12-18T04:37:55;98961.80;;;-5.30
68027;BMP180;54819;48.030;14.710;2022-12-18T04:40:22;98965.00;;;-5.30
68027;BMP180;54819;48.030;14.710;2022-12-18T04:42:49;98967.60;;;-5.36
68027;BMP180;54819;48.030;14.710;2022-12-18T04:45:16;98970.20;;;-5.40
68027;BMP180;54819;48.030;14.710;2022-12-18T04:47:44;98967.60;;;-5.40
68027;BMP180;54819;48.030;14.710;2022-12-18T04:50:11;98969.00;;;-5.40
68027;BMP180;54819;48.030;14.710;2022-12-18T04:52:38;98973.20;;;-5.46
68027;BMP180;54819;48.030;14.710;2022-12-18T04:55:05;98969.20;;;-5.50
68027;BMP180;54819;48.030;14.710;2022-12-18T04:57:32;98974.60;;;-5.50
68027;BMP180;54819;48.030;14.710;2022-12-18T04:59:59;98971.20;;;-5.50
68027;BMP180;54819;48.030;14.710;2022-12-18T05:02:26;98972.60;;;-5.50
68027;BMP180;54819;48.030;14.710;2022-12-18T05:04:53;98975.40;;;-5.58
68027;BMP180;54819;48.030;14.710;2022-12-18T05:07:20;98980.60;;;-5.56
68027;BMP180;54819;48.030;14.710;2022-12-18T05:09:47;98981.00;;;-5.60
68027;BMP180;54819;48.030;14.710;2022-12-18T05:12:13;98980.60;;;-5.60
68027;BMP180;54819;48.030;14.710;2022-12-18T05:14:40;98980.80;;;-5.70
68027;BMP180;54819;48.030;14.710;2022-12-18T05:17:07;98983.40;;;-5.70
68027;BMP180;54819;48.030;14.710;2022-12-18T05:19:34;98988.60;;;-5.80
68027;BMP180;54819;48.030;14.710;2022-12-18T05:22:02;98987.60;;;-5.80
68027;BMP180;54819;48.030;14.710;2022-12-18T05:24:29;98991.00;;;-5.90
68027;BMP180;54819;48.030;14.710;2022-12-18T05:26:56;98983.80;;;-5.94
68027;BMP180;54819;48.030;14.710;2022-12-18T05:29:23;98989.60;;;-6.00
68027;BMP180;54819;48.030;14.710;2022-12-18T05:31:50;98988.00;;;-6.00
68027;BMP180;54819;48.030;14.710;2022-12-18T05:34:16;98992.00;;;-6.00
68027;BMP180;54819;48.030;14.710;2022-12-18T05:36:43;98993.80;;;-6.00
68027;BMP180;54819;48.030;14.710;2022-12-18T05:39:10;98999.20;;;-6.00
68027;BMP180;54819;48.030;14.710;2022-12-18T05:41:37;99000.60;;;-6.00
68027;BMP180;54819;48.030;14.710;2022-12-18T05:44:04;99008.00;;;-6.04
68027;BMP180;54819;48.030;14.710;2022-12-18T05:46:31;99008.60;;;-6.00
68027;BMP180;54819;48.030;14.710;2022-12-18T05:49:00;99011.60;;;-6.00
68027;BMP180;54819;48.030;14.710;2022-12-18T05:51:27;99013.00;;;-6.04
68027;BMP180;54819;48.030;14.710;2022-12-18T05:53:54;99010.20;;;-6.10
68027;BMP180;54819;48.030;14.710;2022-12-18T05:56:22;99010.00;;;-6.10
68027;BMP180;54819;48.030;14.710;2022-12-18T05:58:53;99013.20;;;-6.10
68027;BMP180;54819;48.030;14.710;2022-12-18T06:01:23;99016.40;;;-6.20
68027;BMP180;54819;48.030;14.710;2022-12-18T06:03:50;99016.20;;;-6.20
68027;BMP180;54819;48.030;14.710;2022-12-18T06:06:23;99023.40;;;-6.20
68027;BMP180;54819;48.030;14.710;2022-12-18T06:08:51;99028.80;;;-6.20
68027;BMP180;54819;48.030;14.710;2022-12-18T06:11:20;99029.40;;;-6.20
68027;BMP180;54819;48.030;14.710;2022-12-18T06:13:52;99035.80;;;-6.20
68027;BMP180;54819;48.030;14.710;2022-12-18T06:16:24;99035.00;;;-6.30
68027;BMP180;54819;48.030;14.710;2022-12-18T06:18:51;99038.80;;;-6.30
68027;BMP180;54819;48.030;14.710;2022-12-18T06:21:18;99032.20;;;-6.36
68027;BMP180;54819;48.030;14.710;2022-12-18T06:23:45;99033.60;;;-6.40
68027;BMP180;54819;48.030;14.710;2022-12-18T06:26:13;99031.80;;;-6.40
68027;BMP180;54819;48.030;14.710;2022-12-18T06:28:40;99032.00;;;-6.40
68027;BMP180;54819;48.030;14.710;2022-12-18T06:31:08;99038.40;;;-6.40
68027;BMP180;54819;48.030;14.710;2022-12-18T06:33:35;99042.80;;;-6.40
68027;BMP180;54819;48.030;14.710;2022-12-18T06:36:08;99043.40;;;-6.40
68027;BMP180;54819;48.030;14.710;2022-12-18T06:38:40;99043.40;;;-6.40
68027;BMP180;54819;48.030;14.710;2022-12-18T06:41:09;99046.80;;;-6.40
68027;BMP180;54819;48.030;14.710;2022-12-18T06:43:36;99045.60;;;-6.40
68027;BMP180;54819;48.030;14.710;2022-12-18T06:46:04;99044.00;;;-6.40
68027;BMP180;54819;48.030;14.710;2022-12-18T06:48:31;99054.20;;;-6.40
68027;BMP180;54819;48.030;14.710;2022-12-18T06:50:59;99049.00;;;-6.40
68027;BMP180;54819;48.030;14.710;2022-12-18T06:53:26;99045.40;;;-6.40
68027;BMP180;54819;48.030;14.710;2022-12-18T06:55:59;99045.00;;;-6.32
68027;BMP180;54819;48.030;14.710;2022-12-18T06:58:34;99057.00;;;-6.20
68027;BMP180;54819;48.030;14.710;2022-12-18T07:01:06;99052.00;;;-6.20
68027;BMP180;54819;48.030;14.710;2022-12-18T07:03:33;99060.00;;;-6.20
68027;BMP180;54819;48.030;14.710;2022-12-18T07:06:00;99068.20;;;-6.20
68027;BMP180;54819;48.030;14.710;2022-12-18T07:08:29;99068.20;;;-6.20
68027;BMP180;54819;48.030;14.710;2022-12-18T07:10:56;99073.40;;;-6.24
68027;BMP180;54819;48.030;14.710;2022-12-18T07:13:23;99080.40;;;-6.20
68027;BMP180;54819;48.030;14.710;2022-12-18T07:15:50;99083.00;;;-6.20
68027;BMP180;54819;48.030;14.710;2022-12-18T07:18:17;99088.40;;;-6.20
68027;BMP180;54819;48.030;14.710;2022-12-18T07:20:44;99094.00;;;-6.20
68027;BMP180;54819;48.030;14.710;2022-12-18T07:23:11;99094.60;;;-6.20
68027;BMP180;54819;48.030;14.710;2022-12-18T07:25:38;99098.00;;;-6.10
68027;BMP180;54819;48.030;14.710;2022-12-18T07:28:06;99098.00;;;-6.10
68027;BMP180;54819;48.030;14.710;2022-12-18T07:30:37;99104.80;;;-6.00
68027;BMP180;54819;48.030;14.710;2022-12-18T07:33:04;99107.40;;;-6.00
68027;BMP180;54819;48.030;14.710;2022-12-18T07:35:32;99111.20;;;-5.90
68027;BMP180;54819;48.030;14.710;2022-12-18T07:37:59;99109.20;;;-5.90
68027;BMP180;54819;48.030;14.710;2022-12-18T07:40:26;99110.60;;;-5.80
68027;BMP180;54819;48.030;14.710;2022-12-18T07:42:53;99114.00;;;-5.80
68027;BMP180;54819;48.030;14.710;2022-12-18T07:45:20;99118.40;;;-5.70
68027;BMP180;54819;48.030;14.710;2022-12-18T07:47:46;99111.40;;;-5.68
68027;BMP180;54819;48.030;14.710;2022-12-18T07:50:14;99104.40;;;-5.60
68027;BMP180;54819;48.030;14.710;2022-12-18T07:52:41;99105.60;;;-5.50
68027;BMP180;54819;48.030;14.710;2022-12-18T07:55:08;99103.80;;;-5.50
68027;BMP180;54819;48.030;14.710;2022-12-18T07:57:34;99103.40;;;-5.40
68027;BMP180;54819;48.030;14.710;2022-12-18T08:00:21;99101.00;;;-5.28
68027;BMP180;54819;48.030;14.710;2022-12-18T08:02:48;99102.40;;;-5.20
68027;BMP180;54819;48.030;14.710;2022-12-18T08:05:15;99103.00;;;-5.10
68027;BMP180;54819;48.030;14.710;2022-12-18T08:07:42;99099.40;;;-5.10
68027;BMP180;54819;48.030;14.710;2022-12-18T08:10:09;99097.40;;;-5.00
68027;BMP180;54819;48.030;14.710;2022-12-18T08:12:36;99096.40;;;-4.90
68027;BMP180;54819;48.030;14.710;2022-12-18T08:15:03;99094.20;;;-4.80
68027;BMP180;54819;48.030;14.710;2022-12-18T08:17:30;99091.60;;;-4.70
68027;BMP180;54819;48.030;14.710;2022-12-18T08:19:57;99089.60;;;-4.60
68027;BMP180;54819;48.030;14.710;2022-12-18T08:22:24;99096.80;;;-4.50
68027;BMP180;54819;48.030;14.710;2022-12-18T08:24:51;99090.80;;;-4.40
68027;BMP180;54819;48.030;14.710;2022-12-18T08:27:18;99095.00;;;-4.30
68027;BMP180;54819;48.030;14.710;2022-12-18T08:30:00;99091.00;;;-4.16
68027;BMP180;54819;48.030;14.710;2022-12-18T08:32:27;99091.00;;;-4.04
68027;BMP180;54819;48.030;14.710;2022-12-18T08:34:54;99090.40;;;-4.00
68027;BMP180;54819;48.030;14.710;2022-12-18T08:37:21;99092.20;;;-3.90
68027;BMP180;54819;48.030;14.710;2022-12-18T08:39:48;99098.20;;;-3.84
68027;BMP180;54819;48.030;14.710;2022-12-18T08:42:15;99102.00;;;-3.80
68027;BMP180;54819;48.030;14.710;2022-12-18T08:45:01;99100.80;;;-3.66
68027;BMP180;54819;48.030;14.710;2022-12-18T08:47:28;99100.60;;;-3.60
68027;BMP180;54819;48.030;14.710;2022-12-18T08:49:55;99108.40;;;-3.52
68027;BMP180;54819;48.030;14.710;2022-12-18T08:52:21;99109.80;;;-3.50
68027;BMP180;54819;48.030;14.710;2022-12-18T08:54:48;99111.40;;;-3.40
68027;BMP180;54819;48.030;14.710;2022-12-18T08:57:15;99106.60;;;-3.32
68027;BMP180;54819;48.030;14.710;2022-12-18T08:59:42;99102.00;;;-3.30
68027;BMP180;54819;48.030;14.710;2022-12-18T09:02:10;99104.40;;;-3.22
68027;BMP180;54819;48.030;14.710;2022-12-18T09:04:37;99107.40;;;-3.20
68027;BMP180;54819;48.030;14.710;2022-12-18T09:07:06;99102.60;;;-3.10
68027;BMP180;54819;48.030;14.710;2022-12-18T09:09:33;99100.60;;;-3.10
68027;BMP180;54819;48.030;14.710;2022-12-18T09:12:00;99101.20;;;-3.00
68027;BMP180;54819;48.030;14.710;2022-12-18T09:14:26;99106.60;;;-3.00
68027;BMP180;54819;48.030;14.710;2022-12-18T09:16:53;99104.40;;;-2.90
68027;BMP180;54819;48.030;14.710;2022-12-18T09:19:20;99104.40;;;-2.84
68027;BMP180;54819;48.030;14.710;2022-12-18T09:21:47;99099.80;;;-2.80
68027;BMP180;54819;48.030;14.710;2022-12-18T09:24:15;99113.60;;;-2.78
68027;BMP180;54819;48.030;14.710;2022-12-18T09:26:42;99114.80;;;-2.70
68027;BMP180;54819;48.030;14.710;2022-12-18T09:29:12;99107.60;;;-2.66
68027;BMP180;54819;48.030;14.710;2022-12-18T09:31:40;99101.20;;;-2.60
68027;BMP180;54819;48.030;14.710;2022-12-18T09:34:07;99099.20;;;-2.50
68027;BMP180;54819;48.030;14.710;2022-12-18T09:36:34;99101.00;;;-2.40
68027;BMP180;54819;48.030;14.710;2022-12-18T09:39:01;99103.00;;;-2.30
68027;BMP180;54819;48.030;14.710;2022-12-18T09:41:51;99094.40;;;-2.28
68027;BMP180;54819;48.030;14.710;2022-12-18T09:49:29;99085.00;;;-2.08
68027;BMP180;54819;48.030;14.710;2022-12-18T09:52:02;99082.00;;;-2.00
68027;BMP180;54819;48.030;14.710;2022-12-18T09:54:38;99083.40;;;-1.88
68027;BMP180;54819;48.030;14.710;2022-12-18T09:57:06;99090.20;;;-1.78
68027;BMP180;54819;48.030;14.710;2022-12-18T09:59:37;99079.20;;;-1.70
68027;BMP180;54819;48.030;14.710;2022-12-18T10:02:24;99081.00;;;-1.70
68027;BMP180;54819;48.030;14.710;2022-12-18T10:05:15;99076.20;;;-1.60
68027;BMP180;54819;48.030;14.710;2022-12-18T10:18:58;99070.00;;;-1.36
68027;BMP180;54819;48.030;14.710;2022-12-18T10:26:43;99061.40;;;-1.24
68027;BMP180;54819;48.030;14.710;2022-12-18T10:29:12;99063.40;;;-1.30
68027;BMP180;54819;48.030;14.710;2022-12-18T10:31:39;99064.60;;;-1.30
68027;BMP180;54819;48.030;14.710;2022-12-18T10:34:12;99062.40;;;-1.30
68027;BMP180;54819;48.030;14.710;2022-12-18T10:36:39;99058.00;;;-1.30
68027;BMP180;54819;48.030;14.710;2022-12-18T10:39:19;99056.20;;;-1.30
68027;BMP180;54819;48.030;14.710;2022-12-18T10:41:46;99061.80;;;-1.24
68027;BMP180;54819;48.030;14.710;2022-12-18T10:44:19;99063.80;;;-1.20
68027;BMP180;54819;48.030;14.710;2022-12-18T10:46:49;99056.60;;;-1.20
68027;BMP180;54819;48.030;14.710;2022-12-18T10:49:19;99044.80;;;-1.10
68027;BMP180;54819;48.030;14.710;2022-12-18T10:51:48;99041.20;;;-1.10
68027;BMP180;54819;48.030;14.710;2022-12-18T10:54:22;99045.60;;;-1.10
68027;BMP180;54819;48.030;14.710;2022-12-18T10:56:50;99034.40;;;-1.08
68027;BMP180;54819;48.030;14.710;2022-12-18T10:59:17;99025.60;;;-1.10
68027;BMP180;54819;48.030;14.710;2022-12-18T11:01:53;99024.20;;;-1.10
68027;BMP180;54819;48.030;14.710;2022-12-18T11:04:22;99019.00;;;-1.08
68027;BMP180;54819;48.030;14.710;2022-12-18T11:07:01;99018.60;;;-1.00
68027;BMP180;54819;48.030;14.710;2022-12-18T11:09:35;99016.60;;;-0.94
68027;BMP180;54819;48.030;14.710;2022-12-18T11:12:15;99007.60;;;-0.90
68027;BMP180;54819;48.030;14.710;2022-12-18T11:14:51;99000.00;;;-0.90
68027;BMP180;54819;48.030;14.710;2022-12-18T11:20:00;98998.40;;;-1.00
68027;BMP180;54819;48.030;14.710;2022-12-18T11:22:29;98994.00;;;-1.10
68027;BMP180;54819;48.030;14.710;2022-12-18T11:25:05;98994.80;;;-1.20
68027;BMP180;54819;48.030;14.710;2022-12-18T11:30:47;98996.20;;;-1.30
68027;BMP180;54819;48.030;14.710;2022-12-18T11:33:21;98996.60;;;-1.30
68027;BMP180;54819;48.030;14.710;2022-12-18T11:35:55;98993.00;;;-1.30
68027;BMP180;54819;48.030;14.710;2022-12-18T11:38:27;98994.00;;;-1.30
68027;BMP180;54819;48.030;14.710;2022-12-18T11:40:58;98992.20;;;-1.30
68027;BMP180;54819;48.030;14.710;2022-12-18T11:43:48;98991.40;;;-1.40
68027;BMP180;54819;48.030;14.710;2022-12-18T11:46:30;98994.40;;;-1.36
68027;BMP180;54819;48.030;14.710;2022-12-18T11:49:07;98987.60;;;-1.40
68027;BMP180;54819;48.030;14.710;2022-12-18T11:54:42;98995.60;;;-1.30
68027;BMP180;54819;48.030;14.710;2022-12-18T12:00:15;98993.80;;;-1.32
68027;BMP180;54819;48.030;14.710;2022-12-18T12:16:39;98992.40;;;-1.36
68027;BMP180;54819;48.030;14.710;2022-12-18T12:19:20;98990.00;;;-1.40
68027;BMP180;54819;48.030;14.710;2022-12-18T12:22:00;98990.80;;;-1.50
68027;BMP180;54819;48.030;14.710;2022-12-18T12:24:39;98990.80;;;-1.60
68027;BMP180;54819;48.030;14.710;2022-12-18T12:38:57;98962.80;;;-1.90
68027;BMP180;54819;48.030;14.710;2022-12-18T12:41:30;98962.80;;;-1.90
68027;BMP180;54819;48.030;14.710;2022-12-18T12:44:24;98962.20;;;-1.90
68027;BMP180;54819;48.030;14.710;2022-12-18T12:46:56;98964.00;;;-1.90
68027;BMP180;54819;48.030;14.710;2022-12-18T12:49:28;98959.80;;;-1.90
68027;BMP180;54819;48.030;14.710;2022-12-18T12:52:12;98960.40;;;-1.90
68027;BMP180;54819;48.030;14.710;2022-12-18T12:54:41;98964.80;;;-1.90
68027;BMP180;54819;48.030;14.710;2022-12-18T12:57:22;98972.20;;;-1.96
68027;BMP180;54819;48.030;14.710;2022-12-18T13:02:39;98991.40;;;-1.90
68027;BMP180;54819;48.030;14.710;2022-12-18T13:07:41;99005.20;;;-1.90
68027;BMP180;54819;48.030;14.710;2022-12-18T13:12:56;99006.60;;;-2.00
68027;BMP180;54819;48.030;14.710;2022-12-18T13:15:28;99011.20;;;-2.00
68027;BMP180;54819;48.030;14.710;2022-12-18T13:20:41;99020.20;;;-2.00
68027;BMP180;54819;48.030;14.710;2022-12-18T13:23:37;99024.20;;;-2.00
68027;BMP180;54819;48.030;14.710;2022-12-18T13:34:25;99035.60;;;-2.00
68027;BMP180;54819;48.030;14.710;2022-12-18T13:36:56;99048.60;;;-2.04
68027;BMP180;54819;48.030;14.710;2022-12-18T13:39:33;99054.00;;;-2.00
68027;BMP180;54819;48.030;14.710;2022-12-18T13:44:36;99049.40;;;-1.90
68027;BMP180;54819;48.030;14.710;2022-12-18T13:47:36;99056.80;;;-1.80
68027;BMP180;54819;48.030;14.710;2022-12-18T13:50:23;99063.80;;;-1.80
68027;BMP180;54819;48.030;14.710;2022-12-18T13:52:57;99061.40;;;-1.82
68027;BMP180;54819;48.030;14.710;2022-12-18T13:55:24;99059.20;;;-1.80
68027;BMP180;54819;48.030;14.710;2022-12-18T13:58:03;99061.00;;;-1.94
68027;BMP180;54819;48.030;14.710;2022-12-18T14:00:31;99056.00;;;-1.92
68027;BMP180;54819;48.030;14.710;2022-12-18T14:02:59;99063.60;;;-2.00
68027;BMP180;54819;48.030;14.710;2022-12-18T14:05:31;99065.80;;;-2.08
68027;BMP180;54819;48.030;14.710;2022-12-18T14:08:05;99064.40;;;-2.04
68027;BMP180;54819;48.030;14.710;2022-12-18T14:10:35;99064.80;;;-2.00
68027;BMP180;54819;48.030;14.710;2022-12-18T14:13:23;99061.20;;;-2.10
68027;BMP180;54819;48.030;14.710;2022-12-18T14:15:50;99060.60;;;-2.10
68027;BMP180;54819;48.030;14.710;2022-12-18T14:18:25;99063.60;;;-2.20
68027;BMP180;54819;48.030;14.710;2022-12-18T14:20:57;99061.00;;;-2.20
68027;BMP180;54819;48.030;14.710;2022-12-18T14:23:35;99058.80;;;-2.18
68027;BMP180;54819;48.030;14.710;2022-12-18T14:26:25;99058.40;;;-2.10
68027;BMP180;54819;48.030;14.710;2022-12-18T14:28:58;99056.60;;;-2.20
68027;BMP180;54819;48.030;14.710;2022-12-18T14:31:29;99043.40;;;-2.18
68027;BMP180;54819;48.030;14.710;2022-12-18T14:33:57;99055.00;;;-2.20
68027;BMP180;54819;48.030;14.710;2022-12-18T14:36:26;99054.60;;;-2.22
68027;BMP180;54819;48.030;14.710;2022-12-18T14:38:58;99059.40;;;-2.30
68027;BMP180;54819;48.030;14.710;2022-12-18T14:41:26;99056.00;;;-2.20
68027;BMP180;54819;48.030;14.710;2022-12-18T14:43:54;99052.80;;;-2.20
68027;BMP180;54819;48.030;14.710;2022-12-18T14:49:20;99041.80;;;-2.40
68027;BMP180;54819;48.030;14.710;2022-12-18T14:51:55;99041.40;;;-2.40
68027;BMP180;54819;48.030;14.710;2022-12-18T14:54:24;99047.40;;;-2.46
68027;BMP180;54819;48.030;14.710;2022-12-18T14:57:02;99052.80;;;-2.54
68027;BMP180;54819;48.030;14.710;2022-12-18T14:59:30;99065.60;;;-2.50
68027;BMP180;54819;48.030;14.710;2022-12-18T15:02:15;99068.00;;;-2.50
68027;BMP180;54819;48.030;14.710;2022-12-18T15:04:45;99065.60;;;-2.50
68027;BMP180;54819;48.030;14.710;2022-12-18T15:09:42;99073.40;;;-2.50
68027;BMP180;54819;48.030;14.710;2022-12-18T15:12:28;99078.00;;;-2.52
68027;BMP180;54819;48.030;14.710;2022-12-18T15:14:59;99085.60;;;-2.50
68027;BMP180;54819;48.030;14.710;2022-12-18T15:17:26;99084.20;;;-2.50
68027;BMP180;54819;48.030;14.710;2022-12-18T15:20:00;99086.20;;;-2.50
68027;BMP180;54819;48.030;14.710;2022-12-18T15:22:30;99088.80;;;-2.50
68027;BMP180;54819;48.030;14.710;2022-12-18T15:24:58;99090.40;;;-2.50
68027;BMP180;54819;48.030;14.710;2022-12-18T15:27:32;99089.00;;;-2.50
68027;BMP180;54819;48.030;14.710;2022-12-18T15:30:24;99092.20;;;-2.50
68027;BMP180;54819;48.030;14.710;2022-12-18T15:32:52;99092.00;;;-2.50
68027;BMP180;54819;48.030;14.710;2022-12-18T15:35:38;99094.40;;;-2.40
68027;BMP180;54819;48.030;14.710;2022-12-18T15:38:12;99095.20;;;-2.40
68027;BMP180;54819;48.030;14.710;2022-12-18T15:40:40;99100.00;;;-2.40
68027;BMP180;54819;48.030;14.710;2022-12-18T15:43:08;99107.80;;;-2.42
68027;BMP180;54819;48.030;14.710;2022-12-18T15:45:54;99106.20;;;-2.40
68027;BMP180;54819;48.030;14.710;2022-12-18T15:48:22;99106.00;;;-2.40
68027;BMP180;54819;48.030;14.710;2022-12-18T15:50:50;99101.20;;;-2.40
68027;BMP180;54819;48.030;14.710;2022-12-18T15:53:18;99108.00;;;-2.40
68027;BMP180;54819;48.030;14.710;2022-12-18T15:55:45;99096.40;;;-2.40
68027;BMP180;54819;48.030;14.710;2022-12-18T15:58:32;99096.40;;;-2.34
68027;BMP180;54819;48.030;14.710;2022-12-18T16:01:00;99099.00;;;-2.32
68027;BMP180;54819;48.030;14.710;2022-12-18T16:03:28;99102.20;;;-2.40